Granite Falls, NC (28630)

9:40 AM EST on December 10, 2016 (GMT -0500)
Granite Falls- Downtown | | Change Station

Elev 1198 ft 35.80 °N, 81.43 °W | Updated 15 seconds ago

Clear
Clear
29.5 °F
Feels Like 30 °F
N
3.0
Wind Variable Wind from ESE

Today
High -- | Low -- °F
--% Chance of Precip.
Yesterday
High -- | Low -- °F
Precip. -- in
Pressure 30.53 in
Visibility 10.0 miles
Clouds Clear
Windchill 30 °F
Dew Point 20 °F
Humidity 70%
Rainfall 0.00 in
Snow Depth Not available.
7:25 AM 5:12 PM
Waxing Gibbous, 84% visible
METAR KHKY 101353Z 00000KT 10SM CLR M04/M07 A3051 RMK AO2 SLP336 T10441072
Pressure 30.53 in
Visibility 10.0 miles
Clouds Clear
Windchill 30 °F
Dew Point 20 °F
Humidity 70%
Rainfall 0.00 in
Snow Depth Not available.
7:25 AM 5:12 PM
Waxing Gibbous, 84% visible
METAR KHKY 101353Z 00000KT 10SM CLR M04/M07 A3051 RMK AO2 SLP336 T10441072

10-Day Weather Forecast

Almanac

Astronomy

Dec. 10, 2016 Rise Set
Actual Time
Civil Twilight
Nautical Twilight
Astronomical Twilight
Moon
Length of Visible Light
Length of Day
Tomorrow will be .
, % of the Moon is Illuminated

Today's Extremes

State Highs State Lows

Community

WunderPhotos

Upload Photos

1,956,549 photos uploaded!

WunderBlog® & News

Nearby

Air Quality

  Air Quality AQ Index Pollutant
Not available.

Snow Depth

Station Depth Elevation

Earthquake Activity

City Distance Mag. Time & Date
Minimum magnitude displayed is 2.5.

Coastal Water Temperatures

Place Temperature

Stations

Nearby Weather Stations

Station Location Temp. Windchill Dew Point Humidity Wind Precip. Elev Updated Type
                   

Watches & Warnings

There are currently no watches in effect.